Dillon, MT

11:58 AM MST on February 24, 2017 (GMT -0700)
Dillon | | Change Station
Active Advisory: Special Statement

Elev 5240 ft 45.26 °N, 112.55 °W | Updated 5 minutes ago

Overcast
Overcast
24 °F
Feels Like 18 °F
N
5
Wind Variable Wind from South

Today
High -- | Low -- °F
--% Chance of Precip.
Yesterday
High -- | Low -- °F
Precip. -- in
Pressure 30.07 in
Visibility 9.0 miles
Clouds Mostly Cloudy 2300 ft
Overcast 2900 ft
Windchill 18 °F
Dew Point 15 °F
Humidity 69%
Rainfall 0.02 in
Snow Depth Not available.
7:16 AM 6:11 PM
Waning Crescent, 4% visible
METAR KDLN 241853Z AUTO 17004KT 9SM BKN023 OVC029 M04/M09 A2994 RMK AO2 SLP183 P0002 T10441094
Pressure 30.07 in
Visibility 9.0 miles
Clouds Mostly Cloudy 2300 ft
Overcast 2900 ft
Windchill 18 °F
Dew Point 15 °F
Humidity 69%
Rainfall 0.02 in
Snow Depth Not available.
7:16 AM 6:11 PM
Waning Crescent, 4% visible
METAR KDLN 241853Z AUTO 17004KT 9SM BKN023 OVC029 M04/M09 A2994 RMK AO2 SLP183 P0002 T10441094

Get Your Daily Forecast Email!

Thanks for signing up!

Be on the lookout for a verification email in your inbox.

You'll start receiving the daily forecast at 8 AM.

×

10-Day Weather Forecast

Almanac

Astronomy

Feb. 24, 2017 Rise Set
Actual Time
Civil Twilight
Nautical Twilight
Astronomical Twilight
Moon
Length of Visible Light
Length of Day
Tomorrow will be .
, % of the Moon is Illuminated

Today's Extremes

State Highs State Lows

Community

WunderPhotos

Upload Photos

1,962,540 photos uploaded!

WunderBlog® & News

Nearby

Air Quality

  Air Quality AQ Index Pollutant
Not available.

Snow Depth

Station Depth Elevation

Earthquake Activity

City Distance Mag. Time & Date
Minimum magnitude displayed is 2.5.

Coastal Water Temperatures

Place Temperature

Stations

Nearby Weather Stations

Station Location Temp. Windchill Dew Point Humidity Wind Precip. Elev Updated Type
                   

Watches & Warnings

Special Statement
Issued: 8:20 AM MST Feb. 24, 2017 – National Weather Service

... Periods of light snow expected for southwestern Montana
today...

A weak upper level disturbance will bring periods of light snow
this morning... and continuing through the daytime hours. Light
snow may then linger tonight into Saturday. Visibility may be
reduced to around a mile at times... with some slick and snow
covered roads possible. New snow accumulations should remain
light to moderate... generally around 1 to 4 inches. Those
traveling should proceed with caution.